Time;durP1;ratioP1;P1;durP2;ratioP2;P2;SDS_P1;SDS_P2;PMS_P1;PMS_P2;Temp;Humidity;BMP_temperature;BMP_pressure;BME280_temperature;BME280_humidity;BME280_pressure;Samples;Min_cycle;Max_cycle;Signal;HPM_P1;HPM_P2
2021/06/06 00:00:14;;;;;;;40.85;20.00;;;;;;;;;;5080171;28;20025;-84
2021/06/06 00:02:40;;;;;;;51.30;22.63;;;;;;;;;;5079903;28;20020;-85
2021/06/06 00:05:30;;;;;;;58.70;28.63;;;;;;;;;;5098738;28;20072;-84
2021/06/06 00:07:56;;;;;;;47.13;24.85;;;;;;;;;;5100448;28;20024;-84
2021/06/06 00:10:22;;;;;;;51.22;23.67;;;;;;;;;;5100874;28;20349;-85
2021/06/06 00:12:48;;;;;;;50.47;25.95;;;;;;;;;;5100644;28;20039;-85
2021/06/06 00:15:16;;;;;;;59.17;31.00;;;;;;;;;;5078979;28;20056;-85
2021/06/06 00:17:42;;;;;;;51.88;24.30;;;;;;;;;;5080347;28;20017;-85
2021/06/06 00:20:10;;;;;;;52.08;25.58;;;;;;;;;;5079542;28;20020;-85
2021/06/06 00:22:36;;;;;;;45.45;22.80;;;;;;;;;;5082173;28;20078;-84
2021/06/06 00:25:02;;;;;;;43.65;22.30;;;;;;;;;;5099098;28;20069;-84
2021/06/06 00:27:28;;;;;;;43.63;21.58;;;;;;;;;;5099978;28;20422;-84
2021/06/06 00:29:54;;;;;;;39.60;19.80;;;;;;;;;;5098892;28;20036;-84
2021/06/06 00:32:20;;;;;;;41.80;19.30;;;;;;;;;;5099772;28;20055;-85
2021/06/06 00:34:46;;;;;;;38.13;17.13;;;;;;;;;;5098844;28;20035;-85
2021/06/06 00:37:13;;;;;;;35.58;18.02;;;;;;;;;;5100061;28;20099;-85
2021/06/06 00:39:39;;;;;;;32.83;16.38;;;;;;;;;;5099961;28;20365;-85
2021/06/06 00:42:05;;;;;;;28.73;14.23;;;;;;;;;;5098963;28;20086;-86
2021/06/06 00:44:31;;;;;;;25.77;13.95;;;;;;;;;;5100088;28;20077;-85
2021/06/06 00:46:57;;;;;;;18.95;11.10;;;;;;;;;;5099710;28;20031;-86
2021/06/06 00:49:24;;;;;;;18.98;11.27;;;;;;;;;;5099780;28;20058;-85
2021/06/06 00:51:50;;;;;;;20.25;10.65;;;;;;;;;;5098889;28;20031;-86
2021/06/06 00:54:22;;;;;;;19.73;10.32;;;;;;;;;;5099276;28;20024;-86
2021/06/06 00:56:50;;;;;;;18.30;8.75;;;;;;;;;;5099220;28;20461;-86
2021/06/06 00:59:18;;;;;;;14.50;8.82;;;;;;;;;;5098814;28;20036;-86
2021/06/06 01:01:44;;;;;;;15.05;9.15;;;;;;;;;;5099509;28;20020;-87
2021/06/06 01:04:28;;;;;;;20.25;10.30;;;;;;;;;;5085495;28;20036;-86
2021/06/06 01:06:54;;;;;;;21.05;10.98;;;;;;;;;;5079039;28;20039;-86
2021/06/06 01:09:23;;;;;;;20.55;10.95;;;;;;;;;;5079549;28;20024;-86
2021/06/06 01:11:52;;;;;;;22.25;10.27;;;;;;;;;;5079004;28;20025;-86
2021/06/06 01:14:20;;;;;;;17.88;10.68;;;;;;;;;;5094376;28;20089;-85
2021/06/06 01:16:53;;;;;;;17.63;10.27;;;;;;;;;;5099587;28;20028;-86
2021/06/06 01:19:34;;;;;;;18.70;10.23;;;;;;;;;;5099180;28;20141;-86
2021/06/06 01:22:09;;;;;;;17.98;9.50;;;;;;;;;;5097603;28;20414;-86
2021/06/06 01:24:38;;;;;;;16.95;10.07;;;;;;;;;;5098428;28;20314;-87
2021/06/06 01:27:33;;;;;;;18.85;11.13;;;;;;;;;;5098093;28;20028;-87
2021/06/06 01:29:59;;;;;;;21.30;10.25;;;;;;;;;;5097143;28;20042;-87
2021/06/06 01:32:46;;;;;;;25.02;11.45;;;;;;;;;;5096603;28;20066;-87
2021/06/06 01:35:37;;;;;;;21.45;12.23;;;;;;;;;;5097258;28;20032;-87
2021/06/06 01:38:06;;;;;;;20.25;12.80;;;;;;;;;;5097136;28;20027;-86
2021/06/06 01:40:34;;;;;;;25.42;12.73;;;;;;;;;;5096802;28;20051;-85
2021/06/06 01:43:02;;;;;;;22.75;12.23;;;;;;;;;;5096802;28;20538;-84
2021/06/06 01:45:31;;;;;;;24.35;13.20;;;;;;;;;;5096817;28;20024;-84
2021/06/06 01:47:59;;;;;;;23.77;12.90;;;;;;;;;;5096541;28;20040;-84
2021/06/06 01:50:30;;;;;;;24.70;13.48;;;;;;;;;;5096448;28;20032;-84
2021/06/06 01:52:58;;;;;;;20.17;12.55;;;;;;;;;;5071915;28;20029;-85
2021/06/06 01:55:25;;;;;;;23.58;12.25;;;;;;;;;;5076468;28;20314;-86
2021/06/06 01:57:53;;;;;;;22.50;12.07;;;;;;;;;;5076309;28;20052;-86
2021/06/06 02:00:51;;;;;;;18.40;11.73;;;;;;;;;;5076432;28;20075;-86
2021/06/06 02:03:18;;;;;;;21.20;10.50;;;;;;;;;;5016477;28;20063;-85
2021/06/06 02:06:03;;;;;;;19.08;11.15;;;;;;;;;;5021431;28;20036;-86
2021/06/06 02:08:31;;;;;;;20.52;10.45;;;;;;;;;;5036415;28;20423;-86
2021/06/06 02:10:59;;;;;;;19.17;10.15;;;;;;;;;;5019707;28;20128;-85
2021/06/06 02:13:29;;;;;;;20.65;10.80;;;;;;;;;;5048445;28;20041;-86
2021/06/06 02:15:59;;;;;;;18.80;9.82;;;;;;;;;;5056208;28;20427;-86
2021/06/06 02:18:26;;;;;;;18.25;10.27;;;;;;;;;;5056188;28;20037;-86
2021/06/06 02:20:52;;;;;;;19.42;10.32;;;;;;;;;;5056028;28;20021;-86
2021/06/06 02:23:23;;;;;;;35.10;10.65;;;;;;;;;;5056047;28;20079;-86
2021/06/06 02:25:55;;;;;;;21.58;10.07;;;;;;;;;;5056105;28;20033;-86
2021/06/06 02:28:26;;;;;;;29.35;10.10;;;;;;;;;;5039370;28;20132;-86
2021/06/06 02:30:52;;;;;;;26.02;10.48;;;;;;;;;;5055948;28;20068;-86
2021/06/06 02:33:18;;;;;;;19.33;9.98;;;;;;;;;;5055412;28;20033;-87
2021/06/06 02:35:49;;;;;;;25.50;10.10;;;;;;;;;;5056051;28;20083;-86
2021/06/06 02:38:17;;;;;;;22.77;10.57;;;;;;;;;;5066451;28;20040;-86
2021/06/06 02:40:49;;;;;;;20.48;10.70;;;;;;;;;;5097818;28;20024;-86
2021/06/06 02:43:15;;;;;;;;;;;;;;;;;;5098281;28;20020;-85
2021/06/06 02:45:42;;;;;;;20.25;10.88;;;;;;;;;;5097982;28;19911;-84
2021/06/06 02:48:25;;;;;;;26.23;18.58;;;;;;;;;;5097865;28;20103;-84
2021/06/06 02:50:51;;;;;;;51.53;34.20;;;;;;;;;;5096578;28;20024;-85
2021/06/06 02:53:23;;;;;;;32.72;17.38;;;;;;;;;;5082409;28;20035;-84
2021/06/06 02:55:51;;;;;;;36.95;15.98;;;;;;;;;;5077312;28;20406;-84
2021/06/06 02:58:20;;;;;;;30.15;13.50;;;;;;;;;;5077046;28;20045;-85
2021/06/06 03:00:49;;;;;;;16.20;9.13;;;;;;;;;;5059873;28;20043;-86
2021/06/06 03:03:35;;;;;;;23.17;9.32;;;;;;;;;;5077633;28;20024;-86
2021/06/06 03:06:02;;;;;;;15.57;9.55;;;;;;;;;;5077158;28;20024;-86
2021/06/06 03:08:29;;;;;;;15.55;9.68;;;;;;;;;;5077549;28;20104;-86
2021/06/06 03:10:56;;;;;;;10.75;8.32;;;;;;;;;;5077271;28;20033;-85
2021/06/06 03:13:37;;;;;;;13.05;8.32;;;;;;;;;;5094180;28;20314;-85
2021/06/06 03:16:04;;;;;;;15.43;8.30;;;;;;;;;;5097730;28;20024;-85
2021/06/06 03:18:32;;;;;;;20.38;9.60;;;;;;;;;;5097621;28;20314;-85
2021/06/06 03:21:03;;;;;;;19.77;8.93;;;;;;;;;;5096616;28;20127;-85
2021/06/06 03:23:30;;;;;;;15.57;8.47;;;;;;;;;;5097767;28;20069;-86
2021/06/06 03:26:03;;;;;;;19.42;8.35;;;;;;;;;;5097489;28;20047;-84
2021/06/06 03:28:30;;;;;;;18.33;9.18;;;;;;;;;;5097364;28;20410;-87
2021/06/06 03:30:59;;;;;;;14.02;7.80;;;;;;;;;;5096270;28;20034;-87
2021/06/06 03:33:37;;;;;;;15.93;9.00;;;;;;;;;;5076818;28;20090;-86
2021/06/06 03:36:22;;;;;;;15.00;8.50;;;;;;;;;;5077023;28;20025;-86
2021/06/06 03:38:49;;;;;;;10.40;8.00;;;;;;;;;;5076980;28;20300;-87
2021/06/06 03:41:15;;;;;;;21.38;8.82;;;;;;;;;;5077094;28;20036;-87
2021/06/06 03:43:41;;;;;;;11.82;7.32;;;;;;;;;;5077218;28;20027;-87
2021/06/06 03:46:07;;;;;;;12.15;7.90;;;;;;;;;;5077326;28;20090;-86
2021/06/06 03:48:34;;;;;;;17.42;7.93;;;;;;;;;;5076911;28;20028;-87
2021/06/06 03:51:00;;;;;;;15.05;7.30;;;;;;;;;;5078980;28;20073;-86
2021/06/06 03:53:26;;;;;;;10.15;7.30;;;;;;;;;;5101194;28;20086;-87
2021/06/06 03:55:53;;;;;;;10.88;7.78;;;;;;;;;;5100916;28;20024;-87
2021/06/06 03:58:20;;;;;;;12.40;7.30;;;;;;;;;;5100723;28;20044;-87
2021/06/06 04:00:47;;;;;;;14.63;7.53;;;;;;;;;;5101149;28;20331;-87
2021/06/06 04:03:14;;;;;;;11.32;6.97;;;;;;;;;;5100965;28;20095;-85
2021/06/06 04:05:40;;;;;;;15.20;7.18;;;;;;;;;;5100483;28;20024;-86
2021/06/06 04:08:07;;;;;;;17.30;7.47;;;;;;;;;;5100781;28;20024;-85
2021/06/06 04:10:34;;;;;;;9.20;6.93;;;;;;;;;;5099449;28;20061;-84
2021/06/06 04:13:00;;;;;;;13.27;7.43;;;;;;;;;;5080542;28;20037;-85
2021/06/06 04:15:26;;;;;;;11.23;7.05;;;;;;;;;;5078982;28;20116;-84
2021/06/06 04:17:53;;;;;;;14.40;7.13;;;;;;;;;;5079838;28;20031;-84
2021/06/06 04:20:19;;;;;;;16.08;7.60;;;;;;;;;;5080253;28;20024;-86
2021/06/06 04:22:46;;;;;;;16.50;7.30;;;;;;;;;;5080028;28;20028;-87
2021/06/06 04:25:12;;;;;;;16.45;7.35;;;;;;;;;;5079973;28;20422;-86
2021/06/06 04:27:38;;;;;;;15.02;7.05;;;;;;;;;;5079855;28;20033;-86
2021/06/06 04:30:06;;;;;;;14.70;7.35;;;;;;;;;;5078870;28;20039;-86
2021/06/06 04:32:32;;;;;;;15.30;8.60;;;;;;;;;;5079703;28;20419;-86
2021/06/06 04:34:59;;;;;;;11.93;8.32;;;;;;;;;;5080095;28;20065;-86
2021/06/06 04:37:25;;;;;;;15.93;8.38;;;;;;;;;;5080124;28;20373;-86
2021/06/06 04:39:51;;;;;;;14.48;9.68;;;;;;;;;;5080099;28;20020;-87
2021/06/06 04:42:20;;;;;;;21.27;10.90;;;;;;;;;;5079758;28;20017;-87
2021/06/06 04:44:46;;;;;;;15.07;8.50;;;;;;;;;;5080003;28;20032;-87
2021/06/06 04:47:12;;;;;;;12.70;8.82;;;;;;;;;;5079888;28;20043;-86
2021/06/06 04:52:42;;;;;;;22.17;11.93;;;;;;;;;;5079873;28;20066;-87
2021/06/06 04:55:10;;;;;;;19.85;10.57;;;;;;;;;;5079439;28;20024;-87
2021/06/06 04:57:37;;;;;;;15.07;8.32;;;;;;;;;;5079124;28;20053;-85
2021/06/06 05:00:05;;;;;;;11.70;7.47;;;;;;;;;;5083920;28;20036;-84
2021/06/06 05:02:31;;;;;;;22.38;12.73;;;;;;;;;;5086260;28;20108;-85
2021/06/06 05:04:57;;;;;;;19.88;10.55;;;;;;;;;;5079024;28;20025;-85
2021/06/06 05:07:23;;;;;;;32.78;19.95;;;;;;;;;;5079492;28;20108;-85
2021/06/06 05:09:49;;;;;;;33.42;20.42;;;;;;;;;;5078969;28;20422;-85
2021/06/06 05:12:16;;;;;;;52.40;29.40;;;;;;;;;;5079303;28;20028;-85
2021/06/06 05:14:42;;;;;;;28.08;17.58;;;;;;;;;;5077941;28;20032;-86
2021/06/06 05:17:08;;;;;;;15.77;9.57;;;;;;;;;;5078993;28;20024;-85
2021/06/06 05:19:34;;;;;;;16.05;8.52;;;;;;;;;;5078755;28;20025;-85
2021/06/06 05:22:00;;;;;;;19.77;13.35;;;;;;;;;;5078875;28;20090;-82
2021/06/06 05:24:26;;;;;;;18.48;9.52;;;;;;;;;;5078715;28;20021;-86
2021/06/06 05:26:53;;;;;;;14.32;7.75;;;;;;;;;;5078834;28;20032;-85
2021/06/06 05:29:19;;;;;;;22.67;16.48;;;;;;;;;;5078711;28;20032;-85
2021/06/06 05:31:45;;;;;;;9.48;6.72;;;;;;;;;;5078741;28;20032;-85
2021/06/06 05:34:11;;;;;;;26.38;18.33;;;;;;;;;;5078876;28;20027;-85
2021/06/06 05:36:37;;;;;;;21.17;13.25;;;;;;;;;;5078523;28;20048;-84
2021/06/06 05:39:07;;;;;;;10.98;6.78;;;;;;;;;;5078672;28;20099;-84
2021/06/06 05:41:33;;;;;;;14.63;10.65;;;;;;;;;;5078670;28;20047;-84
2021/06/06 05:43:59;;;;;;;11.90;5.93;;;;;;;;;;5077527;28;20020;-85
2021/06/06 05:46:25;;;;;;;8.07;6.05;;;;;;;;;;5078450;28;20023;-86
2021/06/06 05:48:51;;;;;;;10.63;6.65;;;;;;;;;;5078350;28;20025;-85
2021/06/06 05:51:19;;;;;;;11.80;6.30;;;;;;;;;;5077614;28;20033;-85
2021/06/06 05:53:45;;;;;;;10.20;6.22;;;;;;;;;;5078186;28;20434;-85
2021/06/06 05:56:11;;;;;;;8.50;5.93;;;;;;;;;;5077772;28;20043;-85
2021/06/06 05:58:38;;;;;;;9.48;6.78;;;;;;;;;;5077957;28;20047;-86
2021/06/06 06:01:04;;;;;;;9.13;6.78;;;;;;;;;;5078386;28;20036;-85
2021/06/06 06:03:30;;;;;;;11.90;6.05;;;;;;;;;;5078397;28;20024;-86
2021/06/06 06:05:56;;;;;;;11.25;5.75;;;;;;;;;;5077066;28;20021;-86
2021/06/06 06:08:24;;;;;;;22.45;14.07;;;;;;;;;;5077340;28;20115;-85
2021/06/06 06:10:51;;;;;;;31.17;23.15;;;;;;;;;;5078003;28;20082;-85
2021/06/06 06:13:18;;;;;;;11.27;6.18;;;;;;;;;;5076491;28;20426;-85
2021/06/06 06:15:44;;;;;;;8.55;6.00;;;;;;;;;;5077107;28;20040;-86
2021/06/06 06:18:11;;;;;;;8.02;5.72;;;;;;;;;;5077108;28;20369;-86
2021/06/06 06:20:37;;;;;;;42.53;27.40;;;;;;;;;;5077850;28;20028;-85
2021/06/06 06:23:03;;;;;;;15.25;9.70;;;;;;;;;;5078038;28;20034;-85
2021/06/06 06:25:29;;;;;;;43.10;32.85;;;;;;;;;;5076753;28;20016;-86
2021/06/06 06:27:55;;;;;;;47.78;33.45;;;;;;;;;;5078107;28;20036;-85
2021/06/06 06:30:27;;;;;;;21.38;14.88;;;;;;;;;;5077787;28;20025;-85
2021/06/06 06:32:53;;;;;;;19.98;15.98;;;;;;;;;;5077733;28;20033;-85
2021/06/06 06:35:19;;;;;;;22.98;16.38;;;;;;;;;;5076753;28;20035;-85
2021/06/06 06:37:45;;;;;;;17.67;13.65;;;;;;;;;;5077711;28;20029;-84
2021/06/06 06:40:13;;;;;;;23.48;15.43;;;;;;;;;;5077648;28;20029;-85
2021/06/06 06:42:39;;;;;;;29.25;19.83;;;;;;;;;;5077795;28;20021;-85
2021/06/06 06:45:07;;;;;;;10.52;7.70;;;;;;;;;;5076516;28;20315;-85
2021/06/06 06:47:33;;;;;;;17.08;12.25;;;;;;;;;;5076590;28;20024;-85
2021/06/06 06:49:59;;;;;;;34.88;22.88;;;;;;;;;;5077562;28;20024;-85
2021/06/06 06:52:25;;;;;;;19.95;11.73;;;;;;;;;;5077370;28;20036;-85
2021/06/06 06:54:52;;;;;;;15.35;10.45;;;;;;;;;;5077440;28;20024;-85
2021/06/06 06:57:18;;;;;;;11.13;8.18;;;;;;;;;;5076242;28;20482;-85
2021/06/06 06:59:44;;;;;;;18.00;10.27;;;;;;;;;;5077571;28;20032;-85
2021/06/06 07:02:10;;;;;;;15.23;11.90;;;;;;;;;;5077541;28;20020;-85
2021/06/06 07:04:36;;;;;;;16.52;9.07;;;;;;;;;;5076642;28;20028;-85
2021/06/06 07:07:03;;;;;;;10.82;7.90;;;;;;;;;;5077530;28;20021;-85
2021/06/06 07:09:29;;;;;;;16.42;11.50;;;;;;;;;;5077328;28;20070;-85
2021/06/06 07:11:56;;;;;;;17.23;11.65;;;;;;;;;;5077565;28;20067;-85
2021/06/06 07:14:23;;;;;;;17.48;8.05;;;;;;;;;;5077414;28;20017;-85
2021/06/06 07:16:49;;;;;;;14.18;7.88;;;;;;;;;;5077128;28;20025;-87
2021/06/06 07:19:15;;;;;;;9.40;5.80;;;;;;;;;;5076334;28;20028;-85
2021/06/06 07:21:41;;;;;;;15.77;6.57;;;;;;;;;;5076475;28;20029;-85
2021/06/06 07:24:08;;;;;;;14.88;6.55;;;;;;;;;;5076881;28;20021;-85
2021/06/06 07:26:37;;;;;;;28.63;7.30;;;;;;;;;;5080797;28;20120;-84
2021/06/06 14:14:41;;;;;;;;;;;;;;;;;;5024853;23;20348;-83
2021/06/06 14:17:09;;;;;;;13.05;11.68;;;;;;;;;;4939047;29;19971;-83
2021/06/06 14:19:35;;;;;;;18.55;13.32;;;;;;;;;;4940200;29;20036;-84
2021/06/06 14:22:02;;;;;;;13.15;11.95;;;;;;;;;;4940053;29;20024;-83
2021/06/06 14:24:28;;;;;;;12.20;11.10;;;;;;;;;;4939997;29;20063;-83
2021/06/06 14:26:57;;;;;;;12.50;11.30;;;;;;;;;;4938182;29;20114;-84
2021/06/06 14:29:23;;;;;;;13.40;12.07;;;;;;;;;;4939871;29;20028;-83
2021/06/06 14:31:50;;;;;;;12.85;11.55;;;;;;;;;;4939975;29;20055;-84
2021/06/06 14:34:16;;;;;;;16.08;12.30;;;;;;;;;;4937714;29;20036;-83
2021/06/06 14:36:43;;;;;;;12.88;11.73;;;;;;;;;;4939975;29;20417;-83
2021/06/06 14:39:10;;;;;;;14.65;13.15;;;;;;;;;;4939832;29;20122;-83
2021/06/06 14:41:36;;;;;;;12.60;11.50;;;;;;;;;;4939861;29;20036;-83
2021/06/06 14:44:03;;;;;;;13.13;11.77;;;;;;;;;;4939548;29;20062;-83
2021/06/06 14:46:30;;;;;;;12.68;11.18;;;;;;;;;;4938653;29;20464;-83
2021/06/06 14:48:56;;;;;;;12.98;11.77;;;;;;;;;;4938924;29;20068;-84
2021/06/06 14:51:22;;;;;;;13.30;11.70;;;;;;;;;;4938989;29;20036;-84
2021/06/06 14:53:49;;;;;;;13.35;11.57;;;;;;;;;;4939875;29;20115;-83
2021/06/06 14:56:16;;;;;;;12.65;11.35;;;;;;;;;;4934101;29;20070;-84
2021/06/06 14:58:43;;;;;;;12.82;11.73;;;;;;;;;;4934369;29;20374;-83
2021/06/06 15:01:15;;;;;;;11.77;10.60;;;;;;;;;;4937993;29;20118;-83
2021/06/06 15:03:41;;;;;;;13.68;12.38;;;;;;;;;;4939240;29;20038;-83
2021/06/06 15:06:08;;;;;;;12.52;11.23;;;;;;;;;;4940314;29;20102;-83
2021/06/06 15:08:34;;;;;;;12.20;10.93;;;;;;;;;;4939602;29;20036;-83
2021/06/06 15:11:01;;;;;;;12.90;11.60;;;;;;;;;;4939352;29;20036;-83
2021/06/06 15:13:29;;;;;;;12.35;11.00;;;;;;;;;;4939113;29;20040;-83
2021/06/06 15:15:56;;;;;;;12.05;10.85;;;;;;;;;;4939967;29;20039;-83
2021/06/06 15:18:23;;;;;;;12.32;11.23;;;;;;;;;;4939419;29;20083;-83
2021/06/06 15:20:58;;;;;;;12.32;11.13;;;;;;;;;;4939903;29;20027;-83
2021/06/06 15:23:25;;;;;;;14.68;11.20;;;;;;;;;;4939651;29;20038;-83
2021/06/06 15:25:51;;;;;;;12.65;11.38;;;;;;;;;;4922659;29;20027;-82
2021/06/06 15:28:18;;;;;;;13.60;12.20;;;;;;;;;;4939460;29;20035;-83
2021/06/06 15:30:45;;;;;;;14.38;12.95;;;;;;;;;;4939562;29;20039;-83
2021/06/06 15:33:12;;;;;;;15.60;13.02;;;;;;;;;;4939221;29;20123;-83
2021/06/06 15:35:47;;;;;;;13.32;12.05;;;;;;;;;;4934015;29;20042;-83
2021/06/06 15:38:15;;;;;;;14.23;12.70;;;;;;;;;;4958653;29;20125;-83
2021/06/06 15:40:41;;;;;;;13.80;12.50;;;;;;;;;;4958634;29;20028;-83
2021/06/06 15:43:08;;;;;;;20.38;18.38;;;;;;;;;;4958498;29;20044;-83
2021/06/06 15:45:36;;;;;;;67.47;52.55;;;;;;;;;;4958735;28;20046;-83
2021/06/06 15:48:03;;;;;;;31.88;26.55;;;;;;;;;;4962137;29;20448;-83
2021/06/06 15:50:32;;;;;;;17.08;15.18;;;;;;;;;;4961870;29;20035;-83
2021/06/06 15:52:58;;;;;;;13.95;12.57;;;;;;;;;;4944836;29;20076;-83
2021/06/06 15:55:26;;;;;;;13.77;12.48;;;;;;;;;;4945101;29;20110;-83
2021/06/06 15:57:55;;;;;;;15.20;13.52;;;;;;;;;;4961971;29;20440;-83
2021/06/06 16:00:23;;;;;;;14.55;13.13;;;;;;;;;;4961822;29;20444;-83
2021/06/06 16:02:53;;;;;;;15.10;13.65;;;;;;;;;;4944814;29;20035;-83
2021/06/06 16:05:19;;;;;;;15.45;13.80;;;;;;;;;;4961607;29;20039;-83
2021/06/06 16:07:45;;;;;;;15.00;13.50;;;;;;;;;;4961725;29;20035;-83
2021/06/06 16:10:13;;;;;;;15.48;14.07;;;;;;;;;;4961851;29;20448;-83
2021/06/06 16:12:39;;;;;;;17.63;14.07;;;;;;;;;;4961650;29;20047;-83
2021/06/06 16:15:07;;;;;;;14.98;12.98;;;;;;;;;;4938105;28;20111;-82
2021/06/06 16:17:34;;;;;;;14.23;12.45;;;;;;;;;;4923487;29;20048;-83
2021/06/06 16:20:00;;;;;;;14.63;13.23;;;;;;;;;;4923521;29;20079;-83
2021/06/06 16:22:26;;;;;;;14.13;12.73;;;;;;;;;;4923369;29;20044;-83
2021/06/06 16:24:53;;;;;;;14.80;12.25;;;;;;;;;;4923455;29;20038;-83
2021/06/06 16:27:20;;;;;;;14.73;13.00;;;;;;;;;;4923350;29;20036;-84
2021/06/06 16:30:05;;;;;;;13.70;12.30;;;;;;;;;;4923289;29;20115;-83
2021/06/06 16:32:31;;;;;;;14.18;12.77;;;;;;;;;;4923028;29;20033;-83
2021/06/06 16:34:57;;;;;;;16.15;14.13;;;;;;;;;;4919782;29;20040;-83
2021/06/06 16:37:23;;;;;;;48.63;30.40;;;;;;;;;;4904166;29;20071;-83
2021/06/06 16:39:52;;;;;;;22.80;17.88;;;;;;;;;;4904228;29;20113;-83
2021/06/06 16:42:18;;;;;;;20.13;14.80;;;;;;;;;;4903649;29;20064;-83
2021/06/06 16:44:44;;;;;;;18.98;13.55;;;;;;;;;;4903652;29;20446;-83
2021/06/06 16:47:10;;;;;;;13.77;11.63;;;;;;;;;;4903079;29;20416;-83
2021/06/06 16:49:37;;;;;;;13.52;12.23;;;;;;;;;;4904300;29;20041;-83
2021/06/06 16:52:04;;;;;;;13.15;11.57;;;;;;;;;;4904018;29;20066;-83
2021/06/06 16:54:30;;;;;;;16.38;12.00;;;;;;;;;;4904007;29;20556;-83
2021/06/06 16:56:56;;;;;;;15.75;11.88;;;;;;;;;;4890452;29;20049;-92
2021/06/06 16:59:22;;;;;;;13.30;12.00;;;;;;;;;;4904842;29;20040;-93
2021/06/06 17:01:48;;;;;;;14.38;12.48;;;;;;;;;;4904985;29;20454;-94
2021/06/06 17:04:14;;;;;;;13.73;12.27;;;;;;;;;;4905076;29;20331;-94
2021/06/06 17:06:41;;;;;;;14.05;12.43;;;;;;;;;;4923261;29;20112;-95
2021/06/06 17:09:07;;;;;;;13.38;12.07;;;;;;;;;;4923880;29;20032;-95
2021/06/06 17:11:34;;;;;;;16.15;12.50;;;;;;;;;;4922821;29;20159;-95
2021/06/06 17:14:01;;;;;;;15.77;12.93;;;;;;;;;;4923306;29;20040;-93
2021/06/06 17:16:28;;;;;;;13.98;12.50;;;;;;;;;;4961114;29;20055;-94
2021/06/06 17:18:54;;;;;;;12.85;11.52;;;;;;;;;;4961068;29;20057;-93
2021/06/06 17:21:22;;;;;;;13.30;11.88;;;;;;;;;;4960917;29;20031;-94
2021/06/06 17:23:50;;;;;;;16.20;14.35;;;;;;;;;;4961034;29;20758;-93
2021/06/06 17:26:22;;;;;;;15.52;14.02;;;;;;;;;;4961204;29;20147;-94
2021/06/06 17:28:48;;;;;;;15.73;14.18;;;;;;;;;;4961032;29;20130;-93
2021/06/06 17:31:14;;;;;;;15.18;13.68;;;;;;;;;;4961037;29;20390;-94
2021/06/06 17:33:41;;;;;;;16.65;14.30;;;;;;;;;;4944156;29;20066;-93
2021/06/06 17:36:07;;;;;;;18.77;14.73;;;;;;;;;;4960862;29;20039;-95
2021/06/06 17:38:34;;;;;;;16.13;13.60;;;;;;;;;;4961192;29;20035;-93
2021/06/06 17:41:01;;;;;;;15.68;14.00;;;;;;;;;;4961114;29;20370;-93
2021/06/06 17:43:29;;;;;;;14.88;13.38;;;;;;;;;;4943715;29;20329;-93
2021/06/06 17:45:56;;;;;;;17.65;14.45;;;;;;;;;;4961137;29;20040;-94
2021/06/06 17:48:23;;;;;;;17.27;14.52;;;;;;;;;;4960843;29;20046;-94
2021/06/06 17:50:49;;;;;;;16.67;15.07;;;;;;;;;;4944170;29;20039;-94
2021/06/06 17:53:18;;;;;;;17.13;15.32;;;;;;;;;;4943387;29;20066;-94
2021/06/06 17:55:46;;;;;;;16.40;14.98;;;;;;;;;;4943526;29;20101;-94
2021/06/06 17:58:13;;;;;;;17.50;15.23;;;;;;;;;;4961973;29;20042;-92
2021/06/06 18:00:41;;;;;;;17.95;15.48;;;;;;;;;;4960687;29;20317;-94
2021/06/06 18:03:08;;;;;;;16.77;15.23;;;;;;;;;;4953545;29;20111;-94
2021/06/06 18:05:35;;;;;;;17.85;16.10;;;;;;;;;;4942757;29;20047;-95
2021/06/06 18:08:02;;;;;;;18.17;16.35;;;;;;;;;;4940597;29;20359;-93
2021/06/06 18:10:31;;;;;;;24.35;17.58;;;;;;;;;;4940171;29;20447;-93
2021/06/06 18:12:58;;;;;;;20.25;17.92;;;;;;;;;;4940803;29;20043;-93
2021/06/06 18:15:25;;;;;;;18.33;16.42;;;;;;;;;;4940334;29;20132;-93
2021/06/06 18:17:51;;;;;;;18.90;15.60;;;;;;;;;;4940390;29;20453;-95
2021/06/06 18:20:18;;;;;;;17.60;15.95;;;;;;;;;;4940669;29;20326;-94
2021/06/06 18:22:44;;;;;;;18.77;16.30;;;;;;;;;;4923852;29;20059;-94
2021/06/06 18:25:11;;;;;;;17.90;15.85;;;;;;;;;;4940719;29;20158;-94
2021/06/06 18:27:38;;;;;;;18.58;16.73;;;;;;;;;;4940698;29;20063;-93
2021/06/06 18:30:05;;;;;;;17.58;15.98;;;;;;;;;;4940554;29;20046;-94
2021/06/06 18:32:31;;;;;;;18.92;15.98;;;;;;;;;;4926723;29;20078;-94
2021/06/06 18:34:57;;;;;;;19.65;16.80;;;;;;;;;;4953291;29;20485;-94
2021/06/06 18:37:29;;;;;;;19.88;17.27;;;;;;;;;;4940270;29;20562;-94
2021/06/06 18:39:55;;;;;;;;;;;;;;;;;;4940913;29;20051;-92
2021/06/06 18:42:21;;;;;;;19.30;17.17;;;;;;;;;;4923733;29;19914;-92
2021/06/06 18:44:53;;;;;;;20.45;17.60;;;;;;;;;;4940399;29;20438;-94
2021/06/06 18:47:19;;;;;;;19.77;17.83;;;;;;;;;;4940330;29;20315;-93
2021/06/06 18:49:45;;;;;;;19.42;17.50;;;;;;;;;;4923368;29;20032;-94
2021/06/06 18:52:12;;;;;;;19.27;17.27;;;;;;;;;;4940513;29;20032;-94
2021/06/06 18:54:38;;;;;;;19.50;17.50;;;;;;;;;;4940581;29;20032;-93
2021/06/06 18:57:05;;;;;;;19.40;17.10;;;;;;;;;;4940430;29;20024;-94
2021/06/06 18:59:31;;;;;;;18.80;17.00;;;;;;;;;;4940188;29;20032;-94
2021/06/06 19:01:57;;;;;;;18.95;17.00;;;;;;;;;;4940405;29;20383;-93
2021/06/06 19:04:23;;;;;;;20.25;17.10;;;;;;;;;;4940797;29;20034;-94
2021/06/06 19:06:50;;;;;;;23.73;17.80;;;;;;;;;;4940702;29;20036;-93
2021/06/06 19:09:17;;;;;;;19.27;17.42;;;;;;;;;;4940107;29;20039;-86
2021/06/06 19:11:45;;;;;;;18.45;16.65;;;;;;;;;;4923863;29;20126;-93
2021/06/06 19:14:42;;;;;;;18.48;16.67;;;;;;;;;;4921886;29;20363;-94
2021/06/06 19:17:09;;;;;;;18.30;16.50;;;;;;;;;;4902236;29;20238;-94
2021/06/06 19:19:35;;;;;;;17.40;15.68;;;;;;;;;;4902530;29;20463;-95
2021/06/06 19:22:01;;;;;;;19.40;17.42;;;;;;;;;;4906793;29;20047;-93
2021/06/06 19:24:27;;;;;;;18.77;16.85;;;;;;;;;;4905055;29;20070;-93
2021/06/06 19:26:53;;;;;;;20.05;18.00;;;;;;;;;;4906580;29;20043;-94
2021/06/06 19:29:20;;;;;;;19.77;17.42;;;;;;;;;;4905935;29;20120;-94
2021/06/06 19:31:47;;;;;;;20.33;18.25;;;;;;;;;;4906137;29;20037;-94
2021/06/06 19:34:13;;;;;;;19.02;17.10;;;;;;;;;;4906011;29;20033;-93
2021/06/06 19:36:39;;;;;;;19.55;17.55;;;;;;;;;;4905980;29;20036;-92
2021/06/06 19:39:07;;;;;;;21.60;19.33;;;;;;;;;;4905929;29;20475;-93
2021/06/06 19:41:33;;;;;;;19.77;17.52;;;;;;;;;;4905134;29;20063;-93
2021/06/06 19:43:59;;;;;;;21.45;19.25;;;;;;;;;;4906076;29;20036;-95
2021/06/06 19:46:31;;;;;;;22.15;18.73;;;;;;;;;;4906535;29;20040;-94
2021/06/06 19:48:58;;;;;;;21.85;19.65;;;;;;;;;;4906889;29;20041;-94
2021/06/06 19:51:26;;;;;;;21.50;19.15;;;;;;;;;;4904875;29;20040;-94
2021/06/06 19:53:52;;;;;;;21.42;19.23;;;;;;;;;;4905890;29;20047;-94
2021/06/06 19:56:18;;;;;;;21.65;19.48;;;;;;;;;;4922634;29;20070;-95
2021/06/06 19:58:45;;;;;;;21.75;19.55;;;;;;;;;;4927165;29;20040;-94
2021/06/06 20:01:12;;;;;;;22.35;20.08;;;;;;;;;;4927495;29;20039;-95
2021/06/06 20:03:40;;;;;;;19.42;17.45;;;;;;;;;;4927211;29;20032;-95
2021/06/06 20:06:07;;;;;;;20.83;18.65;;;;;;;;;;4925582;29;20035;-96
2021/06/06 20:08:35;;;;;;;21.27;19.17;;;;;;;;;;4926988;29;20127;-88
2021/06/06 20:17:21;;;;;;;23.92;19.65;;;;;;;;;;4915621;29;20044;-84
2021/06/06 20:19:48;;;;;;;20.42;18.25;;;;;;;;;;4922047;29;20036;-85
2021/06/06 20:22:21;;;;;;;21.23;18.45;;;;;;;;;;4922577;29;20111;-85
2021/06/06 20:24:50;;;;;;;20.88;18.58;;;;;;;;;;4921965;29;20064;-85
2021/06/06 20:27:16;;;;;;;21.42;19.40;;;;;;;;;;4922014;29;20451;-85
2021/06/06 20:29:42;;;;;;;21.25;19.05;;;;;;;;;;4902911;29;20490;-85
2021/06/06 20:32:10;;;;;;;22.45;19.88;;;;;;;;;;4886471;29;20421;-85
2021/06/06 20:37:13;;;;;;;20.90;18.70;;;;;;;;;;4903195;29;20035;-87
2021/06/06 20:39:42;;;;;;;22.10;19.77;;;;;;;;;;4910824;29;20024;-86
2021/06/06 20:42:10;;;;;;;34.22;21.85;;;;;;;;;;4907752;29;20040;-85
2021/06/06 20:44:55;;;;;;;23.10;20.83;;;;;;;;;;4901329;29;20128;-86
2021/06/06 20:47:23;;;;;;;22.63;20.20;;;;;;;;;;4921003;29;20052;-85
2021/06/06 20:49:50;;;;;;;23.50;19.52;;;;;;;;;;4888324;29;20041;-85
2021/06/06 20:52:17;;;;;;;22.83;20.38;;;;;;;;;;4941714;29;20032;-87
2021/06/06 20:54:44;;;;;;;21.17;18.92;;;;;;;;;;4910016;29;20059;-89
2021/06/06 20:57:11;;;;;;;22.92;19.98;;;;;;;;;;4942567;29;20322;-88
2021/06/06 21:02:40;;;;;;;21.95;19.45;;;;;;;;;;4942472;29;20034;-86
2021/06/06 21:05:07;;;;;;;24.25;20.30;;;;;;;;;;4925407;29;20118;-84
2021/06/06 21:07:33;;;;;;;22.83;20.42;;;;;;;;;;4942274;29;20394;-88
2021/06/06 21:09:59;;;;;;;22.42;20.05;;;;;;;;;;4942011;29;20127;-87
2021/06/06 21:12:25;;;;;;;21.88;19.48;;;;;;;;;;4942132;29;20115;-87
2021/06/06 21:14:51;;;;;;;22.17;19.98;;;;;;;;;;4941874;29;20035;-87
2021/06/06 21:17:17;;;;;;;21.40;19.13;;;;;;;;;;4941919;29;20156;-86
2021/06/06 21:19:44;;;;;;;22.80;19.60;;;;;;;;;;4941932;29;20093;-85
2021/06/06 21:22:10;;;;;;;21.77;19.45;;;;;;;;;;4924997;29;20027;-86
2021/06/06 21:24:36;;;;;;;21.42;19.05;;;;;;;;;;4942104;29;20379;-86